sensor_id;sensor_type;location;lat;lon;timestamp;P1;durP1;ratioP1;P2;durP2;ratioP2
65597;SDS011;52267;51.984;20.956;2023-06-10T00:00:30;11.30;;;8.50;;
65597;SDS011;52267;51.984;20.956;2023-06-10T00:03:18;10.10;;;8.10;;
65597;SDS011;52267;51.984;20.956;2023-06-10T00:05:45;9.90;;;8.80;;
65597;SDS011;52267;51.984;20.956;2023-06-10T00:08:13;10.40;;;8.40;;
65597;SDS011;52267;51.984;20.956;2023-06-10T00:10:42;9.80;;;8.20;;
65597;SDS011;52267;51.984;20.956;2023-06-10T00:13:09;10.20;;;8.10;;
65597;SDS011;52267;51.984;20.956;2023-06-10T00:15:37;11.90;;;8.00;;
65597;SDS011;52267;51.984;20.956;2023-06-10T00:18:04;9.00;;;8.10;;
65597;SDS011;52267;51.984;20.956;2023-06-10T00:20:32;9.10;;;7.70;;
65597;SDS011;52267;51.984;20.956;2023-06-10T00:22:59;12.80;;;7.80;;
65597;SDS011;52267;51.984;20.956;2023-06-10T00:25:28;9.70;;;8.60;;
65597;SDS011;52267;51.984;20.956;2023-06-10T00:27:55;12.50;;;9.10;;
65597;SDS011;52267;51.984;20.956;2023-06-10T00:30:22;10.60;;;8.70;;
65597;SDS011;52267;51.984;20.956;2023-06-10T00:32:49;9.50;;;8.50;;
65597;SDS011;52267;51.984;20.956;2023-06-10T00:35:16;9.40;;;8.40;;
65597;SDS011;52267;51.984;20.956;2023-06-10T00:37:43;9.80;;;8.80;;
65597;SDS011;52267;51.984;20.956;2023-06-10T00:40:11;10.40;;;9.30;;
65597;SDS011;52267;51.984;20.956;2023-06-10T00:42:38;11.00;;;8.80;;
65597;SDS011;52267;51.984;20.956;2023-06-10T00:45:05;10.60;;;9.30;;
65597;SDS011;52267;51.984;20.956;2023-06-10T00:47:33;11.30;;;9.50;;
65597;SDS011;52267;51.984;20.956;2023-06-10T00:50:02;11.80;;;9.40;;
65597;SDS011;52267;51.984;20.956;2023-06-10T00:52:30;11.10;;;9.70;;
65597;SDS011;52267;51.984;20.956;2023-06-10T00:54:57;10.30;;;9.20;;
65597;SDS011;52267;51.984;20.956;2023-06-10T00:57:26;11.60;;;9.80;;
65597;SDS011;52267;51.984;20.956;2023-06-10T00:59:54;11.90;;;10.10;;
65597;SDS011;52267;51.984;20.956;2023-06-10T01:02:24;13.50;;;10.60;;
65597;SDS011;52267;51.984;20.956;2023-06-10T01:04:51;10.90;;;9.80;;
65597;SDS011;52267;51.984;20.956;2023-06-10T01:07:28;13.20;;;9.60;;
65597;SDS011;52267;51.984;20.956;2023-06-10T01:10:08;11.80;;;9.30;;
65597;SDS011;52267;51.984;20.956;2023-06-10T01:13:11;11.10;;;9.90;;
65597;SDS011;52267;51.984;20.956;2023-06-10T01:15:39;13.10;;;10.30;;
65597;SDS011;52267;51.984;20.956;2023-06-10T01:18:08;12.50;;;10.80;;
65597;SDS011;52267;51.984;20.956;2023-06-10T01:20:37;12.70;;;10.30;;
65597;SDS011;52267;51.984;20.956;2023-06-10T01:23:08;12.10;;;10.80;;
65597;SDS011;52267;51.984;20.956;2023-06-10T01:25:46;13.10;;;10.70;;
65597;SDS011;52267;51.984;20.956;2023-06-10T01:28:36;12.20;;;10.30;;
65597;SDS011;52267;51.984;20.956;2023-06-10T01:31:33;12.10;;;10.70;;
65597;SDS011;52267;51.984;20.956;2023-06-10T01:34:14;11.80;;;10.50;;
65597;SDS011;52267;51.984;20.956;2023-06-10T01:36:48;12.70;;;10.70;;
65597;SDS011;52267;51.984;20.956;2023-06-10T01:39:17;11.60;;;10.40;;
65597;SDS011;52267;51.984;20.956;2023-06-10T01:41:48;12.40;;;10.20;;
65597;SDS011;52267;51.984;20.956;2023-06-10T01:44:20;12.60;;;9.70;;
65597;SDS011;52267;51.984;20.956;2023-06-10T01:46:51;13.60;;;9.70;;
65597;SDS011;52267;51.984;20.956;2023-06-10T01:49:18;11.70;;;10.00;;
65597;SDS011;52267;51.984;20.956;2023-06-10T01:51:45;10.90;;;9.60;;
65597;SDS011;52267;51.984;20.956;2023-06-10T01:54:12;12.10;;;9.40;;
65597;SDS011;52267;51.984;20.956;2023-06-10T01:56:40;11.40;;;9.60;;
65597;SDS011;52267;51.984;20.956;2023-06-10T01:59:07;11.60;;;9.30;;
65597;SDS011;52267;51.984;20.956;2023-06-10T02:01:34;11.60;;;9.10;;
65597;SDS011;52267;51.984;20.956;2023-06-10T02:04:02;13.40;;;9.30;;
65597;SDS011;52267;51.984;20.956;2023-06-10T02:06:29;10.10;;;8.80;;
65597;SDS011;52267;51.984;20.956;2023-06-10T02:08:56;12.10;;;9.20;;
65597;SDS011;52267;51.984;20.956;2023-06-10T02:11:23;11.20;;;9.20;;
65597;SDS011;52267;51.984;20.956;2023-06-10T02:13:50;13.00;;;9.30;;
65597;SDS011;52267;51.984;20.956;2023-06-10T02:16:17;12.70;;;9.20;;
65597;SDS011;52267;51.984;20.956;2023-06-10T02:18:45;10.80;;;8.80;;
65597;SDS011;52267;51.984;20.956;2023-06-10T02:21:12;11.40;;;8.20;;
65597;SDS011;52267;51.984;20.956;2023-06-10T02:23:39;12.30;;;9.10;;
65597;SDS011;52267;51.984;20.956;2023-06-10T02:26:07;9.30;;;7.90;;
65597;SDS011;52267;51.984;20.956;2023-06-10T02:28:34;10.30;;;8.20;;
65597;SDS011;52267;51.984;20.956;2023-06-10T02:31:01;11.30;;;8.60;;
65597;SDS011;52267;51.984;20.956;2023-06-10T02:33:28;9.50;;;7.90;;
65597;SDS011;52267;51.984;20.956;2023-06-10T02:35:55;11.70;;;8.90;;
65597;SDS011;52267;51.984;20.956;2023-06-10T02:38:23;10.10;;;8.10;;
65597;SDS011;52267;51.984;20.956;2023-06-10T02:40:50;9.90;;;8.50;;
65597;SDS011;52267;51.984;20.956;2023-06-10T02:43:17;11.90;;;8.30;;
65597;SDS011;52267;51.984;20.956;2023-06-10T02:45:45;10.20;;;8.10;;
65597;SDS011;52267;51.984;20.956;2023-06-10T02:48:12;9.80;;;7.50;;
65597;SDS011;52267;51.984;20.956;2023-06-10T02:50:39;9.50;;;7.40;;
65597;SDS011;52267;51.984;20.956;2023-06-10T02:53:06;9.30;;;7.50;;
65597;SDS011;52267;51.984;20.956;2023-06-10T02:55:34;9.50;;;8.10;;
65597;SDS011;52267;51.984;20.956;2023-06-10T02:58:02;10.80;;;8.50;;
65597;SDS011;52267;51.984;20.956;2023-06-10T03:00:29;10.20;;;7.40;;
65597;SDS011;52267;51.984;20.956;2023-06-10T03:02:57;9.40;;;7.70;;
65597;SDS011;52267;51.984;20.956;2023-06-10T03:05:24;10.10;;;7.90;;
65597;SDS011;52267;51.984;20.956;2023-06-10T03:07:51;10.60;;;8.10;;
65597;SDS011;52267;51.984;20.956;2023-06-10T03:10:19;10.80;;;8.10;;
65597;SDS011;52267;51.984;20.956;2023-06-10T03:12:46;8.70;;;7.40;;
65597;SDS011;52267;51.984;20.956;2023-06-10T03:15:13;9.40;;;7.20;;
65597;SDS011;52267;51.984;20.956;2023-06-10T03:17:41;8.70;;;6.80;;
65597;SDS011;52267;51.984;20.956;2023-06-10T03:20:09;9.80;;;7.40;;
65597;SDS011;52267;51.984;20.956;2023-06-10T03:22:36;10.20;;;7.00;;
65597;SDS011;52267;51.984;20.956;2023-06-10T03:25:05;9.90;;;6.90;;
65597;SDS011;52267;51.984;20.956;2023-06-10T03:27:32;10.10;;;6.80;;
65597;SDS011;52267;51.984;20.956;2023-06-10T03:29:59;8.80;;;6.70;;
65597;SDS011;52267;51.984;20.956;2023-06-10T03:32:26;9.70;;;6.10;;
65597;SDS011;52267;51.984;20.956;2023-06-10T03:34:54;10.90;;;6.50;;
65597;SDS011;52267;51.984;20.956;2023-06-10T03:37:24;9.50;;;6.80;;
65597;SDS011;52267;51.984;20.956;2023-06-10T03:39:52;8.80;;;6.10;;
65597;SDS011;52267;51.984;20.956;2023-06-10T03:42:19;9.80;;;6.30;;
65597;SDS011;52267;51.984;20.956;2023-06-10T03:44:46;9.40;;;6.10;;
65597;SDS011;52267;51.984;20.956;2023-06-10T03:47:15;9.10;;;6.20;;
65597;SDS011;52267;51.984;20.956;2023-06-10T03:49:43;8.40;;;5.90;;
65597;SDS011;52267;51.984;20.956;2023-06-10T03:52:10;10.60;;;6.40;;
65597;SDS011;52267;51.984;20.956;2023-06-10T03:54:37;10.90;;;6.40;;
65597;SDS011;52267;51.984;20.956;2023-06-10T03:57:04;9.10;;;6.00;;
65597;SDS011;52267;51.984;20.956;2023-06-10T03:59:32;10.00;;;5.80;;
65597;SDS011;52267;51.984;20.956;2023-06-10T04:01:59;10.60;;;6.20;;
65597;SDS011;52267;51.984;20.956;2023-06-10T04:04:28;8.20;;;6.00;;
65597;SDS011;52267;51.984;20.956;2023-06-10T04:06:55;9.10;;;5.70;;
65597;SDS011;52267;51.984;20.956;2023-06-10T04:09:22;8.30;;;5.80;;
65597;SDS011;52267;51.984;20.956;2023-06-10T04:11:49;8.30;;;6.00;;
65597;SDS011;52267;51.984;20.956;2023-06-10T04:14:16;7.70;;;5.90;;
65597;SDS011;52267;51.984;20.956;2023-06-10T04:16:43;12.80;;;6.20;;
65597;SDS011;52267;51.984;20.956;2023-06-10T04:19:10;10.50;;;5.70;;
65597;SDS011;52267;51.984;20.956;2023-06-10T04:21:37;10.70;;;6.00;;
65597;SDS011;52267;51.984;20.956;2023-06-10T04:24:04;8.40;;;6.00;;
65597;SDS011;52267;51.984;20.956;2023-06-10T04:26:32;11.00;;;5.80;;
65597;SDS011;52267;51.984;20.956;2023-06-10T04:29:00;9.40;;;6.00;;
65597;SDS011;52267;51.984;20.956;2023-06-10T04:31:27;10.20;;;6.10;;
65597;SDS011;52267;51.984;20.956;2023-06-10T04:33:54;9.00;;;6.00;;
65597;SDS011;52267;51.984;20.956;2023-06-10T04:36:21;9.10;;;6.10;;
65597;SDS011;52267;51.984;20.956;2023-06-10T04:38:48;7.90;;;5.40;;
65597;SDS011;52267;51.984;20.956;2023-06-10T04:41:16;10.00;;;6.00;;
65597;SDS011;52267;51.984;20.956;2023-06-10T04:43:43;8.30;;;5.70;;
65597;SDS011;52267;51.984;20.956;2023-06-10T04:46:10;7.60;;;5.40;;
65597;SDS011;52267;51.984;20.956;2023-06-10T04:48:37;7.20;;;5.60;;
65597;SDS011;52267;51.984;20.956;2023-06-10T04:51:04;9.70;;;5.90;;
65597;SDS011;52267;51.984;20.956;2023-06-10T04:53:31;9.60;;;5.70;;
65597;SDS011;52267;51.984;20.956;2023-06-10T04:55:59;12.70;;;6.50;;
65597;SDS011;52267;51.984;20.956;2023-06-10T04:58:26;13.30;;;5.80;;
65597;SDS011;52267;51.984;20.956;2023-06-10T05:00:53;8.40;;;5.40;;
65597;SDS011;52267;51.984;20.956;2023-06-10T05:03:20;8.20;;;5.30;;
65597;SDS011;52267;51.984;20.956;2023-06-10T05:05:47;10.90;;;5.80;;
65597;SDS011;52267;51.984;20.956;2023-06-10T05:08:14;9.10;;;5.80;;
65597;SDS011;52267;51.984;20.956;2023-06-10T05:10:44;11.10;;;6.20;;
65597;SDS011;52267;51.984;20.956;2023-06-10T05:13:11;7.50;;;5.10;;
65597;SDS011;52267;51.984;20.956;2023-06-10T05:15:38;8.10;;;5.30;;
65597;SDS011;52267;51.984;20.956;2023-06-10T05:18:05;9.00;;;5.20;;
65597;SDS011;52267;51.984;20.956;2023-06-10T05:20:32;12.00;;;6.50;;
65597;SDS011;52267;51.984;20.956;2023-06-10T05:22:59;10.80;;;6.30;;
65597;SDS011;52267;51.984;20.956;2023-06-10T05:25:30;11.30;;;5.90;;
65597;SDS011;52267;51.984;20.956;2023-06-10T05:27:57;7.90;;;5.80;;
65597;SDS011;52267;51.984;20.956;2023-06-10T05:30:24;8.00;;;5.60;;
65597;SDS011;52267;51.984;20.956;2023-06-10T05:32:53;9.00;;;5.90;;
65597;SDS011;52267;51.984;20.956;2023-06-10T05:35:20;8.20;;;5.60;;
65597;SDS011;52267;51.984;20.956;2023-06-10T05:37:48;7.30;;;5.50;;
65597;SDS011;52267;51.984;20.956;2023-06-10T05:40:15;10.20;;;5.50;;
65597;SDS011;52267;51.984;20.956;2023-06-10T05:42:42;8.90;;;5.50;;
65597;SDS011;52267;51.984;20.956;2023-06-10T05:45:09;8.30;;;5.60;;
65597;SDS011;52267;51.984;20.956;2023-06-10T05:47:37;10.10;;;5.70;;
65597;SDS011;52267;51.984;20.956;2023-06-10T05:50:04;9.20;;;5.90;;
65597;SDS011;52267;51.984;20.956;2023-06-10T05:52:36;8.80;;;5.30;;
65597;SDS011;52267;51.984;20.956;2023-06-10T05:55:03;7.80;;;5.20;;
65597;SDS011;52267;51.984;20.956;2023-06-10T05:57:31;8.70;;;5.60;;
65597;SDS011;52267;51.984;20.956;2023-06-10T05:59:58;8.30;;;5.50;;
65597;SDS011;52267;51.984;20.956;2023-06-10T06:02:25;7.80;;;5.20;;
65597;SDS011;52267;51.984;20.956;2023-06-10T06:04:52;6.50;;;5.20;;
65597;SDS011;52267;51.984;20.956;2023-06-10T06:07:19;9.50;;;6.00;;
65597;SDS011;52267;51.984;20.956;2023-06-10T06:09:47;8.80;;;5.30;;
65597;SDS011;52267;51.984;20.956;2023-06-10T06:12:14;8.20;;;5.50;;
65597;SDS011;52267;51.984;20.956;2023-06-10T06:14:41;7.90;;;5.00;;
65597;SDS011;52267;51.984;20.956;2023-06-10T06:17:08;8.10;;;5.40;;
65597;SDS011;52267;51.984;20.956;2023-06-10T06:19:35;10.60;;;5.90;;
65597;SDS011;52267;51.984;20.956;2023-06-10T06:22:03;8.60;;;5.30;;
65597;SDS011;52267;51.984;20.956;2023-06-10T06:24:30;8.50;;;5.30;;
65597;SDS011;52267;51.984;20.956;2023-06-10T06:26:57;6.90;;;5.00;;
65597;SDS011;52267;51.984;20.956;2023-06-10T06:29:24;9.70;;;5.10;;
65597;SDS011;52267;51.984;20.956;2023-06-10T06:31:51;8.10;;;5.70;;
65597;SDS011;52267;51.984;20.956;2023-06-10T06:34:18;7.80;;;5.70;;
65597;SDS011;52267;51.984;20.956;2023-06-10T06:36:45;10.30;;;5.10;;
65597;SDS011;52267;51.984;20.956;2023-06-10T06:39:12;9.10;;;5.30;;
65597;SDS011;52267;51.984;20.956;2023-06-10T06:41:40;8.30;;;5.50;;
65597;SDS011;52267;51.984;20.956;2023-06-10T06:44:07;8.50;;;5.30;;
65597;SDS011;52267;51.984;20.956;2023-06-10T06:46:34;11.80;;;5.50;;
65597;SDS011;52267;51.984;20.956;2023-06-10T06:49:01;8.00;;;6.10;;
65597;SDS011;52267;51.984;20.956;2023-06-10T06:51:28;7.00;;;5.00;;
65597;SDS011;52267;51.984;20.956;2023-06-10T06:53:55;9.50;;;5.10;;
65597;SDS011;52267;51.984;20.956;2023-06-10T06:56:25;7.60;;;5.30;;
65597;SDS011;52267;51.984;20.956;2023-06-10T06:58:54;7.40;;;4.90;;
65597;SDS011;52267;51.984;20.956;2023-06-10T07:01:21;8.50;;;5.80;;
65597;SDS011;52267;51.984;20.956;2023-06-10T07:03:48;8.80;;;5.40;;
65597;SDS011;52267;51.984;20.956;2023-06-10T07:06:15;7.80;;;5.60;;
65597;SDS011;52267;51.984;20.956;2023-06-10T07:08:42;7.80;;;5.80;;
65597;SDS011;52267;51.984;20.956;2023-06-10T07:11:09;7.50;;;5.70;;
65597;SDS011;52267;51.984;20.956;2023-06-10T07:13:41;8.20;;;5.60;;
65597;SDS011;52267;51.984;20.956;2023-06-10T07:16:08;6.90;;;5.10;;
65597;SDS011;52267;51.984;20.956;2023-06-10T07:18:35;8.00;;;5.00;;
65597;SDS011;52267;51.984;20.956;2023-06-10T07:21:02;10.10;;;5.50;;
65597;SDS011;52267;51.984;20.956;2023-06-10T07:23:29;9.30;;;5.90;;
65597;SDS011;52267;51.984;20.956;2023-06-10T07:25:56;7.00;;;4.80;;
65597;SDS011;52267;51.984;20.956;2023-06-10T07:28:23;8.30;;;5.10;;
65597;SDS011;52267;51.984;20.956;2023-06-10T07:30:51;6.60;;;5.50;;
65597;SDS011;52267;51.984;20.956;2023-06-10T07:33:18;6.60;;;4.40;;
65597;SDS011;52267;51.984;20.956;2023-06-10T07:35:45;8.00;;;5.40;;
65597;SDS011;52267;51.984;20.956;2023-06-10T07:38:12;8.50;;;5.20;;
65597;SDS011;52267;51.984;20.956;2023-06-10T07:40:39;8.00;;;5.20;;
65597;SDS011;52267;51.984;20.956;2023-06-10T07:43:06;7.70;;;5.80;;
65597;SDS011;52267;51.984;20.956;2023-06-10T07:45:33;7.10;;;4.70;;
65597;SDS011;52267;51.984;20.956;2023-06-10T07:48:00;6.30;;;4.70;;
65597;SDS011;52267;51.984;20.956;2023-06-10T07:50:27;7.50;;;4.90;;
65597;SDS011;52267;51.984;20.956;2023-06-10T07:52:54;7.60;;;5.50;;
65597;SDS011;52267;51.984;20.956;2023-06-10T07:55:22;6.30;;;5.00;;
65597;SDS011;52267;51.984;20.956;2023-06-10T07:57:49;7.50;;;4.90;;
65597;SDS011;52267;51.984;20.956;2023-06-10T08:00:16;6.70;;;5.40;;
65597;SDS011;52267;51.984;20.956;2023-06-10T08:02:44;7.00;;;4.60;;
65597;SDS011;52267;51.984;20.956;2023-06-10T08:05:11;9.60;;;5.10;;
65597;SDS011;52267;51.984;20.956;2023-06-10T08:07:39;7.80;;;4.80;;
65597;SDS011;52267;51.984;20.956;2023-06-10T08:10:07;8.40;;;5.70;;
65597;SDS011;52267;51.984;20.956;2023-06-10T08:12:35;6.90;;;5.20;;
65597;SDS011;52267;51.984;20.956;2023-06-10T08:15:03;7.60;;;4.90;;
65597;SDS011;52267;51.984;20.956;2023-06-10T08:17:31;8.10;;;4.60;;
65597;SDS011;52267;51.984;20.956;2023-06-10T08:19:58;9.40;;;5.00;;
65597;SDS011;52267;51.984;20.956;2023-06-10T08:22:25;6.00;;;4.70;;
65597;SDS011;52267;51.984;20.956;2023-06-10T08:24:52;9.20;;;4.30;;
65597;SDS011;52267;51.984;20.956;2023-06-10T08:27:19;6.90;;;4.50;;
65597;SDS011;52267;51.984;20.956;2023-06-10T08:29:46;5.60;;;4.20;;
65597;SDS011;52267;51.984;20.956;2023-06-10T08:32:14;6.00;;;4.10;;
65597;SDS011;52267;51.984;20.956;2023-06-10T08:34:41;7.00;;;4.40;;
65597;SDS011;52267;51.984;20.956;2023-06-10T08:37:08;7.20;;;4.00;;
65597;SDS011;52267;51.984;20.956;2023-06-10T08:39:35;9.30;;;4.30;;
65597;SDS011;52267;51.984;20.956;2023-06-10T08:44:56;7.10;;;4.10;;
65597;SDS011;52267;51.984;20.956;2023-06-10T08:47:24;8.20;;;4.30;;
65597;SDS011;52267;51.984;20.956;2023-06-10T08:49:52;7.40;;;4.60;;
65597;SDS011;52267;51.984;20.956;2023-06-10T08:52:20;6.30;;;4.40;;
65597;SDS011;52267;51.984;20.956;2023-06-10T08:54:57;6.50;;;4.30;;
65597;SDS011;52267;51.984;20.956;2023-06-10T08:57:27;7.90;;;3.90;;
65597;SDS011;52267;51.984;20.956;2023-06-10T08:59:55;7.40;;;4.90;;
65597;SDS011;52267;51.984;20.956;2023-06-10T09:02:24;8.30;;;4.80;;
65597;SDS011;52267;51.984;20.956;2023-06-10T09:04:52;6.30;;;4.00;;
65597;SDS011;52267;51.984;20.956;2023-06-10T09:07:19;5.40;;;4.00;;
65597;SDS011;52267;51.984;20.956;2023-06-10T09:09:49;8.30;;;4.90;;
65597;SDS011;52267;51.984;20.956;2023-06-10T09:12:16;8.40;;;4.60;;
65597;SDS011;52267;51.984;20.956;2023-06-10T09:14:43;7.00;;;4.60;;
65597;SDS011;52267;51.984;20.956;2023-06-10T09:17:10;6.10;;;4.20;;
65597;SDS011;52267;51.984;20.956;2023-06-10T09:19:38;6.40;;;4.40;;
65597;SDS011;52267;51.984;20.956;2023-06-10T09:22:06;5.80;;;4.20;;
65597;SDS011;52267;51.984;20.956;2023-06-10T09:24:34;9.70;;;4.90;;
65597;SDS011;52267;51.984;20.956;2023-06-10T09:27:05;7.10;;;4.40;;
65597;SDS011;52267;51.984;20.956;2023-06-10T09:29:54;9.10;;;4.00;;
65597;SDS011;52267;51.984;20.956;2023-06-10T09:32:21;6.60;;;4.30;;
65597;SDS011;52267;51.984;20.956;2023-06-10T09:34:48;7.00;;;4.60;;
65597;SDS011;52267;51.984;20.956;2023-06-10T09:37:23;6.50;;;4.30;;
65597;SDS011;52267;51.984;20.956;2023-06-10T09:40:04;8.70;;;4.40;;
65597;SDS011;52267;51.984;20.956;2023-06-10T09:42:34;8.30;;;4.80;;
65597;SDS011;52267;51.984;20.956;2023-06-10T09:45:04;6.90;;;4.20;;
65597;SDS011;52267;51.984;20.956;2023-06-10T09:47:32;7.80;;;4.60;;
65597;SDS011;52267;51.984;20.956;2023-06-10T09:49:59;6.10;;;4.20;;
65597;SDS011;52267;51.984;20.956;2023-06-10T09:52:28;11.20;;;5.60;;
65597;SDS011;52267;51.984;20.956;2023-06-10T09:55:01;7.80;;;4.40;;
65597;SDS011;52267;51.984;20.956;2023-06-10T09:57:32;5.50;;;4.40;;
65597;SDS011;52267;51.984;20.956;2023-06-10T10:00:07;10.00;;;4.90;;
65597;SDS011;52267;51.984;20.956;2023-06-10T10:05:18;7.10;;;4.70;;
65597;SDS011;52267;51.984;20.956;2023-06-10T10:07:47;7.10;;;4.20;;
65597;SDS011;52267;51.984;20.956;2023-06-10T10:10:17;5.90;;;3.90;;
65597;SDS011;52267;51.984;20.956;2023-06-10T10:12:51;8.20;;;4.90;;
65597;SDS011;52267;51.984;20.956;2023-06-10T10:15:25;7.00;;;4.70;;
65597;SDS011;52267;51.984;20.956;2023-06-10T10:18:06;6.10;;;4.50;;
65597;SDS011;52267;51.984;20.956;2023-06-10T10:20:39;6.50;;;4.40;;
65597;SDS011;52267;51.984;20.956;2023-06-10T10:23:14;6.50;;;4.30;;
65597;SDS011;52267;51.984;20.956;2023-06-10T10:25:42;6.70;;;4.60;;
65597;SDS011;52267;51.984;20.956;2023-06-10T10:28:11;9.10;;;4.80;;
65597;SDS011;52267;51.984;20.956;2023-06-10T10:30:44;10.20;;;4.50;;
65597;SDS011;52267;51.984;20.956;2023-06-10T10:33:40;7.20;;;3.80;;
65597;SDS011;52267;51.984;20.956;2023-06-10T10:36:25;6.30;;;3.70;;
65597;SDS011;52267;51.984;20.956;2023-06-10T10:38:54;10.00;;;4.20;;
65597;SDS011;52267;51.984;20.956;2023-06-10T10:41:22;5.90;;;4.10;;
65597;SDS011;52267;51.984;20.956;2023-06-10T10:43:52;7.00;;;4.20;;
65597;SDS011;52267;51.984;20.956;2023-06-10T10:46:19;5.60;;;3.90;;
65597;SDS011;52267;51.984;20.956;2023-06-10T10:48:52;7.60;;;4.50;;
65597;SDS011;52267;51.984;20.956;2023-06-10T10:51:22;7.60;;;4.10;;
65597;SDS011;52267;51.984;20.956;2023-06-10T10:54:13;7.50;;;4.70;;
65597;SDS011;52267;51.984;20.956;2023-06-10T10:57:13;7.90;;;4.40;;
65597;SDS011;52267;51.984;20.956;2023-06-10T10:59:58;9.20;;;4.10;;
65597;SDS011;52267;51.984;20.956;2023-06-10T11:02:32;5.90;;;4.20;;
65597;SDS011;52267;51.984;20.956;2023-06-10T11:05:00;12.90;;;5.20;;
65597;SDS011;52267;51.984;20.956;2023-06-10T11:07:32;7.40;;;4.20;;
65597;SDS011;52267;51.984;20.956;2023-06-10T11:10:05;9.60;;;4.60;;
65597;SDS011;52267;51.984;20.956;2023-06-10T11:15:13;6.70;;;4.20;;
65597;SDS011;52267;51.984;20.956;2023-06-10T11:18:15;7.00;;;4.10;;
65597;SDS011;52267;51.984;20.956;2023-06-10T11:26:12;8.90;;;4.50;;
65597;SDS011;52267;51.984;20.956;2023-06-10T11:31:22;6.00;;;4.70;;
65597;SDS011;52267;51.984;20.956;2023-06-10T11:36:22;6.70;;;4.50;;
65597;SDS011;52267;51.984;20.956;2023-06-10T11:39:04;8.60;;;5.00;;
65597;SDS011;52267;51.984;20.956;2023-06-10T11:41:33;7.40;;;5.00;;
65597;SDS011;52267;51.984;20.956;2023-06-10T11:44:04;7.50;;;4.60;;
65597;SDS011;52267;51.984;20.956;2023-06-10T11:46:34;6.80;;;4.70;;
65597;SDS011;52267;51.984;20.956;2023-06-10T11:49:03;6.40;;;4.80;;
65597;SDS011;52267;51.984;20.956;2023-06-10T11:51:36;6.20;;;4.70;;
65597;SDS011;52267;51.984;20.956;2023-06-10T11:54:07;8.30;;;5.00;;
65597;SDS011;52267;51.984;20.956;2023-06-10T11:56:35;7.10;;;4.80;;
65597;SDS011;52267;51.984;20.956;2023-06-10T11:59:06;7.20;;;5.00;;
65597;SDS011;52267;51.984;20.956;2023-06-10T12:01:36;5.70;;;4.60;;
65597;SDS011;52267;51.984;20.956;2023-06-10T12:06:46;7.50;;;5.10;;
65597;SDS011;52267;51.984;20.956;2023-06-10T12:15:05;7.30;;;5.70;;
65597;SDS011;52267;51.984;20.956;2023-06-10T12:20:03;7.70;;;5.20;;
65597;SDS011;52267;51.984;20.956;2023-06-10T12:22:42;7.70;;;6.00;;
65597;SDS011;52267;51.984;20.956;2023-06-10T12:25:11;7.80;;;5.60;;
65597;SDS011;52267;51.984;20.956;2023-06-10T12:27:40;9.90;;;5.50;;
65597;SDS011;52267;51.984;20.956;2023-06-10T12:30:21;6.20;;;5.50;;
65597;SDS011;52267;51.984;20.956;2023-06-10T12:32:51;7.90;;;5.70;;
65597;SDS011;52267;51.984;20.956;2023-06-10T12:35:28;9.80;;;6.30;;
65597;SDS011;52267;51.984;20.956;2023-06-10T12:40:39;8.10;;;5.90;;
65597;SDS011;52267;51.984;20.956;2023-06-10T12:43:10;9.10;;;6.30;;
65597;SDS011;52267;51.984;20.956;2023-06-10T12:45:39;7.70;;;6.20;;
65597;SDS011;52267;51.984;20.956;2023-06-10T12:48:11;7.00;;;5.90;;
65597;SDS011;52267;51.984;20.956;2023-06-10T12:50:40;6.70;;;6.00;;
65597;SDS011;52267;51.984;20.956;2023-06-10T12:53:09;9.90;;;6.30;;
65597;SDS011;52267;51.984;20.956;2023-06-10T12:55:43;9.20;;;5.90;;
65597;SDS011;52267;51.984;20.956;2023-06-10T12:58:12;6.90;;;5.90;;
65597;SDS011;52267;51.984;20.956;2023-06-10T13:00:40;7.40;;;6.20;;
65597;SDS011;52267;51.984;20.956;2023-06-10T13:03:09;7.10;;;6.10;;
65597;SDS011;52267;51.984;20.956;2023-06-10T13:05:37;7.90;;;6.50;;
65597;SDS011;52267;51.984;20.956;2023-06-10T13:08:08;10.50;;;6.80;;
65597;SDS011;52267;51.984;20.956;2023-06-10T13:10:38;8.40;;;5.70;;
65597;SDS011;52267;51.984;20.956;2023-06-10T13:13:05;9.50;;;6.10;;
65597;SDS011;52267;51.984;20.956;2023-06-10T13:15:34;7.80;;;5.80;;
65597;SDS011;52267;51.984;20.956;2023-06-10T13:18:04;9.70;;;6.50;;
65597;SDS011;52267;51.984;20.956;2023-06-10T13:20:31;9.30;;;7.30;;
65597;SDS011;52267;51.984;20.956;2023-06-10T13:22:58;6.90;;;6.00;;
65597;SDS011;52267;51.984;20.956;2023-06-10T13:25:25;13.20;;;7.00;;
65597;SDS011;52267;51.984;20.956;2023-06-10T13:27:52;8.60;;;6.10;;
65597;SDS011;52267;51.984;20.956;2023-06-10T13:30:19;7.10;;;6.30;;
65597;SDS011;52267;51.984;20.956;2023-06-10T13:32:47;7.90;;;6.30;;
65597;SDS011;52267;51.984;20.956;2023-06-10T13:35:14;7.30;;;6.60;;
65597;SDS011;52267;51.984;20.956;2023-06-10T13:37:41;10.20;;;6.60;;
65597;SDS011;52267;51.984;20.956;2023-06-10T13:40:09;9.60;;;7.10;;
65597;SDS011;52267;51.984;20.956;2023-06-10T13:42:36;9.40;;;7.10;;
65597;SDS011;52267;51.984;20.956;2023-06-10T13:45:04;6.80;;;6.10;;
65597;SDS011;52267;51.984;20.956;2023-06-10T13:47:32;8.60;;;6.30;;
65597;SDS011;52267;51.984;20.956;2023-06-10T13:49:59;10.20;;;7.00;;
65597;SDS011;52267;51.984;20.956;2023-06-10T13:52:26;7.80;;;6.60;;
65597;SDS011;52267;51.984;20.956;2023-06-10T13:54:53;7.50;;;6.20;;
65597;SDS011;52267;51.984;20.956;2023-06-10T13:57:21;7.60;;;6.40;;
65597;SDS011;52267;51.984;20.956;2023-06-10T13:59:51;7.90;;;7.10;;
65597;SDS011;52267;51.984;20.956;2023-06-10T14:04:45;7.90;;;6.50;;
65597;SDS011;52267;51.984;20.956;2023-06-10T14:07:14;7.60;;;6.00;;
65597;SDS011;52267;51.984;20.956;2023-06-10T14:09:42;12.10;;;6.70;;
65597;SDS011;52267;51.984;20.956;2023-06-10T14:12:09;7.80;;;5.80;;
65597;SDS011;52267;51.984;20.956;2023-06-10T14:14:37;8.00;;;6.40;;
65597;SDS011;52267;51.984;20.956;2023-06-10T14:17:04;8.40;;;7.50;;
65597;SDS011;52267;51.984;20.956;2023-06-10T14:19:32;7.20;;;6.30;;
65597;SDS011;52267;51.984;20.956;2023-06-10T14:21:59;7.60;;;6.60;;
65597;SDS011;52267;51.984;20.956;2023-06-10T14:24:26;8.90;;;6.70;;
65597;SDS011;52267;51.984;20.956;2023-06-10T14:26:53;7.60;;;6.10;;
65597;SDS011;52267;51.984;20.956;2023-06-10T14:29:20;8.80;;;7.20;;
65597;SDS011;52267;51.984;20.956;2023-06-10T14:31:47;9.20;;;6.80;;
65597;SDS011;52267;51.984;20.956;2023-06-10T14:34:14;10.20;;;6.70;;
65597;SDS011;52267;51.984;20.956;2023-06-10T14:36:41;8.70;;;7.00;;
65597;SDS011;52267;51.984;20.956;2023-06-10T14:39:08;14.60;;;7.20;;
65597;SDS011;52267;51.984;20.956;2023-06-10T14:41:35;9.50;;;6.90;;
65597;SDS011;52267;51.984;20.956;2023-06-10T14:44:03;8.40;;;6.50;;
65597;SDS011;52267;51.984;20.956;2023-06-10T14:46:30;9.70;;;6.90;;
65597;SDS011;52267;51.984;20.956;2023-06-10T14:48:57;9.70;;;6.70;;
65597;SDS011;52267;51.984;20.956;2023-06-10T14:51:26;8.20;;;7.20;;
65597;SDS011;52267;51.984;20.956;2023-06-10T14:53:53;10.90;;;6.90;;
65597;SDS011;52267;51.984;20.956;2023-06-10T14:56:20;8.80;;;7.10;;
65597;SDS011;52267;51.984;20.956;2023-06-10T14:58:47;9.10;;;6.30;;
65597;SDS011;52267;51.984;20.956;2023-06-10T15:01:14;9.70;;;7.10;;
65597;SDS011;52267;51.984;20.956;2023-06-10T15:03:41;8.20;;;6.70;;
65597;SDS011;52267;51.984;20.956;2023-06-10T15:06:08;7.80;;;7.00;;
65597;SDS011;52267;51.984;20.956;2023-06-10T15:08:35;8.50;;;7.60;;
65597;SDS011;52267;51.984;20.956;2023-06-10T15:11:02;8.50;;;7.60;;
65597;SDS011;52267;51.984;20.956;2023-06-10T15:13:30;8.20;;;7.00;;
65597;SDS011;52267;51.984;20.956;2023-06-10T15:15:57;10.10;;;7.10;;